sensor_id;sensor_type;location;lat;lon;timestamp;P1;durP1;ratioP1;P2;durP2;ratioP2
64615;SDS011;51027;42.162;24.754;2022-11-11T00:00:50;52.33;;;29.30;;
64615;SDS011;51027;42.162;24.754;2022-11-11T00:03:22;54.90;;;31.23;;
64615;SDS011;51027;42.162;24.754;2022-11-11T00:05:48;48.42;;;26.63;;
64615;SDS011;51027;42.162;24.754;2022-11-11T00:08:13;49.65;;;29.35;;
64615;SDS011;51027;42.162;24.754;2022-11-11T00:10:38;53.33;;;30.00;;
64615;SDS011;51027;42.162;24.754;2022-11-11T00:13:04;54.38;;;28.90;;
64615;SDS011;51027;42.162;24.754;2022-11-11T00:15:30;52.95;;;30.23;;
64615;SDS011;51027;42.162;24.754;2022-11-11T00:17:56;55.00;;;28.15;;
64615;SDS011;51027;42.162;24.754;2022-11-11T00:20:40;55.63;;;28.77;;
64615;SDS011;51027;42.162;24.754;2022-11-11T00:23:25;49.03;;;30.05;;
64615;SDS011;51027;42.162;24.754;2022-11-11T00:26:11;49.03;;;28.25;;
64615;SDS011;51027;42.162;24.754;2022-11-11T00:28:38;53.47;;;29.73;;
64615;SDS011;51027;42.162;24.754;2022-11-11T00:31:05;51.70;;;28.88;;
64615;SDS011;51027;42.162;24.754;2022-11-11T00:33:36;48.35;;;27.60;;
64615;SDS011;51027;42.162;24.754;2022-11-11T00:36:01;55.83;;;29.55;;
64615;SDS011;51027;42.162;24.754;2022-11-11T00:38:27;50.00;;;28.08;;
64615;SDS011;51027;42.162;24.754;2022-11-11T00:41:19;54.03;;;27.92;;
64615;SDS011;51027;42.162;24.754;2022-11-11T00:43:47;48.60;;;25.90;;
64615;SDS011;51027;42.162;24.754;2022-11-11T00:46:12;46.72;;;27.50;;
64615;SDS011;51027;42.162;24.754;2022-11-11T00:48:58;45.72;;;26.17;;
64615;SDS011;51027;42.162;24.754;2022-11-11T00:51:42;52.25;;;26.92;;
64615;SDS011;51027;42.162;24.754;2022-11-11T00:54:08;52.83;;;29.35;;
64615;SDS011;51027;42.162;24.754;2022-11-11T00:56:37;49.67;;;28.42;;
64615;SDS011;51027;42.162;24.754;2022-11-11T00:59:07;50.78;;;28.90;;
64615;SDS011;51027;42.162;24.754;2022-11-11T01:01:36;51.40;;;28.00;;
64615;SDS011;51027;42.162;24.754;2022-11-11T01:04:04;52.42;;;28.58;;
64615;SDS011;51027;42.162;24.754;2022-11-11T01:06:29;50.92;;;29.67;;
64615;SDS011;51027;42.162;24.754;2022-11-11T01:08:55;49.83;;;26.70;;
64615;SDS011;51027;42.162;24.754;2022-11-11T01:11:21;54.80;;;29.85;;
64615;SDS011;51027;42.162;24.754;2022-11-11T01:13:48;52.45;;;30.15;;
64615;SDS011;51027;42.162;24.754;2022-11-11T01:16:15;52.10;;;29.02;;
64615;SDS011;51027;42.162;24.754;2022-11-11T01:18:43;51.47;;;28.83;;
64615;SDS011;51027;42.162;24.754;2022-11-11T01:23:39;48.75;;;27.10;;
64615;SDS011;51027;42.162;24.754;2022-11-11T01:28:39;46.28;;;27.63;;
64615;SDS011;51027;42.162;24.754;2022-11-11T01:31:06;50.92;;;27.33;;
64615;SDS011;51027;42.162;24.754;2022-11-11T01:33:33;48.77;;;27.83;;
64615;SDS011;51027;42.162;24.754;2022-11-11T01:36:05;57.45;;;29.17;;
64615;SDS011;51027;42.162;24.754;2022-11-11T01:38:32;50.55;;;27.65;;
64615;SDS011;51027;42.162;24.754;2022-11-11T01:40:58;45.50;;;26.33;;
64615;SDS011;51027;42.162;24.754;2022-11-11T01:43:24;50.95;;;27.20;;
64615;SDS011;51027;42.162;24.754;2022-11-11T01:45:51;53.42;;;27.05;;
64615;SDS011;51027;42.162;24.754;2022-11-11T01:48:32;47.35;;;26.50;;
64615;SDS011;51027;42.162;24.754;2022-11-11T01:51:23;48.05;;;25.67;;
64615;SDS011;51027;42.162;24.754;2022-11-11T01:54:05;46.75;;;26.40;;
64615;SDS011;51027;42.162;24.754;2022-11-11T01:56:34;41.80;;;23.33;;
64615;SDS011;51027;42.162;24.754;2022-11-11T01:59:01;47.25;;;25.88;;
64615;SDS011;51027;42.162;24.754;2022-11-11T02:01:31;42.13;;;23.92;;
64615;SDS011;51027;42.162;24.754;2022-11-11T02:03:58;47.55;;;24.40;;
64615;SDS011;51027;42.162;24.754;2022-11-11T02:06:45;47.60;;;23.92;;
64615;SDS011;51027;42.162;24.754;2022-11-11T02:09:14;45.38;;;25.05;;
64615;SDS011;51027;42.162;24.754;2022-11-11T02:11:40;43.63;;;23.90;;
64615;SDS011;51027;42.162;24.754;2022-11-11T02:14:25;43.75;;;23.40;;
64615;SDS011;51027;42.162;24.754;2022-11-11T02:17:10;44.55;;;24.17;;
64615;SDS011;51027;42.162;24.754;2022-11-11T02:22:27;46.97;;;25.02;;
64615;SDS011;51027;42.162;24.754;2022-11-11T02:24:58;46.47;;;24.95;;
64615;SDS011;51027;42.162;24.754;2022-11-11T02:27:26;48.13;;;26.08;;
64615;SDS011;51027;42.162;24.754;2022-11-11T02:29:54;45.50;;;26.05;;
64615;SDS011;51027;42.162;24.754;2022-11-11T02:32:25;48.38;;;26.30;;
64615;SDS011;51027;42.162;24.754;2022-11-11T02:34:51;44.75;;;24.30;;
64615;SDS011;51027;42.162;24.754;2022-11-11T02:37:18;45.47;;;25.17;;
64615;SDS011;51027;42.162;24.754;2022-11-11T02:39:46;47.92;;;26.85;;
64615;SDS011;51027;42.162;24.754;2022-11-11T02:42:14;53.15;;;30.30;;
64615;SDS011;51027;42.162;24.754;2022-11-11T02:44:42;52.63;;;32.67;;
64615;SDS011;51027;42.162;24.754;2022-11-11T02:47:08;52.63;;;32.97;;
64615;SDS011;51027;42.162;24.754;2022-11-11T02:49:33;52.80;;;33.70;;
64615;SDS011;51027;42.162;24.754;2022-11-11T02:52:01;50.08;;;32.55;;
64615;SDS011;51027;42.162;24.754;2022-11-11T02:54:27;52.13;;;34.05;;
64615;SDS011;51027;42.162;24.754;2022-11-11T02:56:53;62.63;;;40.25;;
64615;SDS011;51027;42.162;24.754;2022-11-11T02:59:31;68.13;;;36.90;;
64615;SDS011;51027;42.162;24.754;2022-11-11T03:01:57;56.47;;;34.60;;
64615;SDS011;51027;42.162;24.754;2022-11-11T03:04:22;60.13;;;36.10;;
64615;SDS011;51027;42.162;24.754;2022-11-11T03:06:47;62.58;;;33.05;;
64615;SDS011;51027;42.162;24.754;2022-11-11T03:09:13;56.47;;;31.20;;
64615;SDS011;51027;42.162;24.754;2022-11-11T03:11:39;53.05;;;31.48;;
64615;SDS011;51027;42.162;24.754;2022-11-11T03:14:05;48.80;;;29.17;;
64615;SDS011;51027;42.162;24.754;2022-11-11T03:16:30;44.88;;;27.80;;
64615;SDS011;51027;42.162;24.754;2022-11-11T03:19:14;52.92;;;27.48;;
64615;SDS011;51027;42.162;24.754;2022-11-11T03:21:40;46.58;;;27.42;;
64615;SDS011;51027;42.162;24.754;2022-11-11T03:24:05;45.45;;;26.40;;
64615;SDS011;51027;42.162;24.754;2022-11-11T03:26:31;47.63;;;25.55;;
64615;SDS011;51027;42.162;24.754;2022-11-11T03:28:57;47.88;;;27.63;;
64615;SDS011;51027;42.162;24.754;2022-11-11T03:31:23;47.67;;;24.33;;
64615;SDS011;51027;42.162;24.754;2022-11-11T03:33:49;48.67;;;26.35;;
64615;SDS011;51027;42.162;24.754;2022-11-11T03:36:14;46.72;;;26.50;;
64615;SDS011;51027;42.162;24.754;2022-11-11T03:38:40;44.10;;;24.15;;
64615;SDS011;51027;42.162;24.754;2022-11-11T03:41:05;47.92;;;25.55;;
64615;SDS011;51027;42.162;24.754;2022-11-11T03:43:31;46.35;;;24.67;;
64615;SDS011;51027;42.162;24.754;2022-11-11T03:46:00;44.40;;;23.85;;
64615;SDS011;51027;42.162;24.754;2022-11-11T03:48:27;43.55;;;23.95;;
64615;SDS011;51027;42.162;24.754;2022-11-11T03:50:55;43.17;;;24.92;;
64615;SDS011;51027;42.162;24.754;2022-11-11T03:53:20;47.45;;;24.58;;
64615;SDS011;51027;42.162;24.754;2022-11-11T03:55:47;43.10;;;24.63;;
64615;SDS011;51027;42.162;24.754;2022-11-11T03:58:14;44.80;;;24.25;;
64615;SDS011;51027;42.162;24.754;2022-11-11T04:00:40;46.22;;;24.33;;
64615;SDS011;51027;42.162;24.754;2022-11-11T04:03:09;41.50;;;23.65;;
64615;SDS011;51027;42.162;24.754;2022-11-11T04:06:01;46.33;;;23.75;;
64615;SDS011;51027;42.162;24.754;2022-11-11T04:08:48;44.72;;;23.60;;
64615;SDS011;51027;42.162;24.754;2022-11-11T04:11:34;45.55;;;24.92;;
64615;SDS011;51027;42.162;24.754;2022-11-11T04:16:48;39.50;;;22.25;;
64615;SDS011;51027;42.162;24.754;2022-11-11T04:19:13;43.47;;;24.60;;
64615;SDS011;51027;42.162;24.754;2022-11-11T04:21:57;43.63;;;23.27;;
64615;SDS011;51027;42.162;24.754;2022-11-11T04:24:23;47.97;;;26.00;;
64615;SDS011;51027;42.162;24.754;2022-11-11T04:27:17;44.33;;;25.38;;
64615;SDS011;51027;42.162;24.754;2022-11-11T04:29:44;46.58;;;25.50;;
64615;SDS011;51027;42.162;24.754;2022-11-11T04:32:21;42.80;;;23.33;;
64615;SDS011;51027;42.162;24.754;2022-11-11T04:35:00;46.17;;;25.73;;
64615;SDS011;51027;42.162;24.754;2022-11-11T04:37:28;47.00;;;25.40;;
64615;SDS011;51027;42.162;24.754;2022-11-11T04:39:56;51.95;;;25.33;;
64615;SDS011;51027;42.162;24.754;2022-11-11T04:42:40;47.42;;;24.63;;
64615;SDS011;51027;42.162;24.754;2022-11-11T04:45:06;44.72;;;26.75;;
64615;SDS011;51027;42.162;24.754;2022-11-11T04:48:07;44.63;;;23.95;;
64615;SDS011;51027;42.162;24.754;2022-11-11T04:50:41;42.58;;;23.13;;
64615;SDS011;51027;42.162;24.754;2022-11-11T04:53:09;47.28;;;24.98;;
64615;SDS011;51027;42.162;24.754;2022-11-11T04:55:37;45.67;;;25.30;;
64615;SDS011;51027;42.162;24.754;2022-11-11T04:58:22;44.80;;;24.08;;
64615;SDS011;51027;42.162;24.754;2022-11-11T05:00:49;46.40;;;23.40;;
64615;SDS011;51027;42.162;24.754;2022-11-11T05:03:15;43.30;;;23.10;;
64615;SDS011;51027;42.162;24.754;2022-11-11T05:08:36;41.45;;;23.73;;
64615;SDS011;51027;42.162;24.754;2022-11-11T05:11:22;37.42;;;20.58;;
64615;SDS011;51027;42.162;24.754;2022-11-11T05:13:51;45.30;;;23.52;;
64615;SDS011;51027;42.162;24.754;2022-11-11T05:16:43;40.28;;;23.02;;
64615;SDS011;51027;42.162;24.754;2022-11-11T05:19:32;42.80;;;23.23;;
64615;SDS011;51027;42.162;24.754;2022-11-11T05:24:54;41.83;;;21.33;;
64615;SDS011;51027;42.162;24.754;2022-11-11T05:27:39;42.67;;;23.42;;
64615;SDS011;51027;42.162;24.754;2022-11-11T05:30:05;41.53;;;21.75;;
64615;SDS011;51027;42.162;24.754;2022-11-11T05:32:33;36.13;;;21.08;;
64615;SDS011;51027;42.162;24.754;2022-11-11T05:34:58;45.85;;;22.92;;
64615;SDS011;51027;42.162;24.754;2022-11-11T05:37:24;45.40;;;24.13;;
64615;SDS011;51027;42.162;24.754;2022-11-11T05:39:49;41.08;;;22.30;;
64615;SDS011;51027;42.162;24.754;2022-11-11T05:42:15;42.60;;;25.33;;
64615;SDS011;51027;42.162;24.754;2022-11-11T05:44:40;45.90;;;22.98;;
64615;SDS011;51027;42.162;24.754;2022-11-11T05:47:06;40.85;;;24.40;;
64615;SDS011;51027;42.162;24.754;2022-11-11T05:49:32;47.58;;;24.50;;
64615;SDS011;51027;42.162;24.754;2022-11-11T05:51:58;46.70;;;25.27;;
64615;SDS011;51027;42.162;24.754;2022-11-11T05:54:24;46.75;;;25.33;;
64615;SDS011;51027;42.162;24.754;2022-11-11T05:56:49;48.45;;;26.27;;
64615;SDS011;51027;42.162;24.754;2022-11-11T05:59:15;45.38;;;25.60;;
64615;SDS011;51027;42.162;24.754;2022-11-11T06:05:00;46.92;;;26.88;;
64615;SDS011;51027;42.162;24.754;2022-11-11T06:07:25;44.55;;;23.27;;
64615;SDS011;51027;42.162;24.754;2022-11-11T06:09:51;46.33;;;24.05;;
64615;SDS011;51027;42.162;24.754;2022-11-11T06:12:16;38.47;;;21.17;;
64615;SDS011;51027;42.162;24.754;2022-11-11T06:14:42;42.72;;;23.17;;
64615;SDS011;51027;42.162;24.754;2022-11-11T06:17:07;45.42;;;22.88;;
64615;SDS011;51027;42.162;24.754;2022-11-11T06:19:33;41.28;;;21.98;;
64615;SDS011;51027;42.162;24.754;2022-11-11T06:21:58;46.15;;;24.45;;
64615;SDS011;51027;42.162;24.754;2022-11-11T06:24:28;48.58;;;24.15;;
64615;SDS011;51027;42.162;24.754;2022-11-11T06:26:54;42.60;;;22.63;;
64615;SDS011;51027;42.162;24.754;2022-11-11T06:29:19;47.63;;;22.38;;
64615;SDS011;51027;42.162;24.754;2022-11-11T06:31:45;41.35;;;23.60;;
64615;SDS011;51027;42.162;24.754;2022-11-11T06:34:11;49.05;;;26.70;;
64615;SDS011;51027;42.162;24.754;2022-11-11T06:36:36;43.85;;;25.58;;
64615;SDS011;51027;42.162;24.754;2022-11-11T06:39:02;47.55;;;24.90;;
64615;SDS011;51027;42.162;24.754;2022-11-11T06:41:27;48.42;;;27.20;;
64615;SDS011;51027;42.162;24.754;2022-11-11T06:43:52;50.55;;;27.85;;
64615;SDS011;51027;42.162;24.754;2022-11-11T06:46:22;49.45;;;28.35;;
64615;SDS011;51027;42.162;24.754;2022-11-11T06:48:48;53.72;;;30.27;;
64615;SDS011;51027;42.162;24.754;2022-11-11T06:51:14;56.53;;;28.95;;
64615;SDS011;51027;42.162;24.754;2022-11-11T06:53:40;49.60;;;29.02;;
64615;SDS011;51027;42.162;24.754;2022-11-11T06:56:06;47.58;;;29.00;;
64615;SDS011;51027;42.162;24.754;2022-11-11T06:58:32;45.65;;;27.88;;
64615;SDS011;51027;42.162;24.754;2022-11-11T07:00:58;48.85;;;26.45;;
64615;SDS011;51027;42.162;24.754;2022-11-11T07:03:24;56.67;;;27.63;;
64615;SDS011;51027;42.162;24.754;2022-11-11T07:05:49;47.33;;;24.75;;
64615;SDS011;51027;42.162;24.754;2022-11-11T07:08:15;43.47;;;25.23;;
64615;SDS011;51027;42.162;24.754;2022-11-11T07:10:43;45.75;;;25.13;;
64615;SDS011;51027;42.162;24.754;2022-11-11T07:13:10;42.85;;;24.25;;
64615;SDS011;51027;42.162;24.754;2022-11-11T07:15:36;47.90;;;24.63;;
64615;SDS011;51027;42.162;24.754;2022-11-11T07:18:02;39.42;;;21.23;;
64615;SDS011;51027;42.162;24.754;2022-11-11T07:20:28;45.80;;;24.45;;
64615;SDS011;51027;42.162;24.754;2022-11-11T07:22:53;38.13;;;19.67;;
64615;SDS011;51027;42.162;24.754;2022-11-11T07:25:19;39.13;;;20.98;;
64615;SDS011;51027;42.162;24.754;2022-11-11T07:27:44;39.25;;;22.13;;
64615;SDS011;51027;42.162;24.754;2022-11-11T07:30:10;37.28;;;19.17;;
64615;SDS011;51027;42.162;24.754;2022-11-11T07:32:36;40.58;;;20.63;;
64615;SDS011;51027;42.162;24.754;2022-11-11T07:35:08;34.50;;;18.23;;
64615;SDS011;51027;42.162;24.754;2022-11-11T07:37:35;36.33;;;19.67;;
64615;SDS011;51027;42.162;24.754;2022-11-11T07:40:02;33.90;;;17.60;;
64615;SDS011;51027;42.162;24.754;2022-11-11T07:42:27;37.30;;;19.52;;
64615;SDS011;51027;42.162;24.754;2022-11-11T07:44:53;36.55;;;16.75;;
64615;SDS011;51027;42.162;24.754;2022-11-11T07:47:18;31.55;;;15.30;;
64615;SDS011;51027;42.162;24.754;2022-11-11T07:49:44;29.13;;;13.55;;
64615;SDS011;51027;42.162;24.754;2022-11-11T07:52:09;30.98;;;14.95;;
64615;SDS011;51027;42.162;24.754;2022-11-11T07:54:35;29.52;;;14.43;;
64615;SDS011;51027;42.162;24.754;2022-11-11T07:57:00;32.30;;;14.68;;
64615;SDS011;51027;42.162;24.754;2022-11-11T07:59:25;30.55;;;14.02;;
64615;SDS011;51027;42.162;24.754;2022-11-11T08:01:51;28.50;;;13.80;;
64615;SDS011;51027;42.162;24.754;2022-11-11T08:04:17;29.33;;;13.85;;
64615;SDS011;51027;42.162;24.754;2022-11-11T08:06:42;30.42;;;14.75;;
64615;SDS011;51027;42.162;24.754;2022-11-11T08:09:08;29.77;;;14.38;;
64615;SDS011;51027;42.162;24.754;2022-11-11T08:11:34;28.85;;;13.93;;
64615;SDS011;51027;42.162;24.754;2022-11-11T08:14:17;29.27;;;14.60;;
64615;SDS011;51027;42.162;24.754;2022-11-11T08:16:43;31.15;;;14.45;;
64615;SDS011;51027;42.162;24.754;2022-11-11T08:19:08;27.73;;;13.77;;
64615;SDS011;51027;42.162;24.754;2022-11-11T08:21:34;31.90;;;14.35;;
64615;SDS011;51027;42.162;24.754;2022-11-11T08:23:59;29.23;;;14.00;;
64615;SDS011;51027;42.162;24.754;2022-11-11T08:26:25;29.63;;;12.45;;
64615;SDS011;51027;42.162;24.754;2022-11-11T08:28:50;27.63;;;12.20;;
64615;SDS011;51027;42.162;24.754;2022-11-11T08:31:17;27.67;;;14.13;;
64615;SDS011;51027;42.162;24.754;2022-11-11T08:33:42;29.08;;;13.68;;
64615;SDS011;51027;42.162;24.754;2022-11-11T08:36:08;25.35;;;12.35;;
64615;SDS011;51027;42.162;24.754;2022-11-11T08:38:35;28.55;;;13.63;;
64615;SDS011;51027;42.162;24.754;2022-11-11T08:41:02;28.55;;;12.40;;
64615;SDS011;51027;42.162;24.754;2022-11-11T08:43:29;26.80;;;11.10;;
64615;SDS011;51027;42.162;24.754;2022-11-11T08:45:57;26.70;;;13.52;;
64615;SDS011;51027;42.162;24.754;2022-11-11T08:48:23;30.25;;;14.60;;
64615;SDS011;51027;42.162;24.754;2022-11-11T08:50:50;29.10;;;12.98;;
64615;SDS011;51027;42.162;24.754;2022-11-11T08:53:16;28.73;;;12.88;;
64615;SDS011;51027;42.162;24.754;2022-11-11T08:55:42;28.55;;;12.93;;
64615;SDS011;51027;42.162;24.754;2022-11-11T08:58:09;27.98;;;12.52;;
64615;SDS011;51027;42.162;24.754;2022-11-11T09:00:34;29.58;;;13.45;;
64615;SDS011;51027;42.162;24.754;2022-11-11T09:03:00;24.75;;;10.55;;
64615;SDS011;51027;42.162;24.754;2022-11-11T09:05:29;23.50;;;10.43;;
64615;SDS011;51027;42.162;24.754;2022-11-11T09:07:55;26.40;;;12.85;;
64615;SDS011;51027;42.162;24.754;2022-11-11T09:10:21;27.48;;;12.30;;
64615;SDS011;51027;42.162;24.754;2022-11-11T09:12:46;25.33;;;12.48;;
64615;SDS011;51027;42.162;24.754;2022-11-11T09:15:11;30.48;;;14.02;;
64615;SDS011;51027;42.162;24.754;2022-11-11T09:17:45;27.80;;;12.93;;
64615;SDS011;51027;42.162;24.754;2022-11-11T09:20:11;26.65;;;12.57;;
64615;SDS011;51027;42.162;24.754;2022-11-11T09:22:43;19.67;;;9.32;;
64615;SDS011;51027;42.162;24.754;2022-11-11T09:25:12;26.13;;;12.23;;
64615;SDS011;51027;42.162;24.754;2022-11-11T09:27:38;26.08;;;10.73;;
64615;SDS011;51027;42.162;24.754;2022-11-11T09:30:04;28.00;;;12.32;;
64615;SDS011;51027;42.162;24.754;2022-11-11T09:32:30;26.20;;;12.63;;
64615;SDS011;51027;42.162;24.754;2022-11-11T09:34:57;25.13;;;11.55;;
64615;SDS011;51027;42.162;24.754;2022-11-11T09:37:23;26.52;;;12.63;;
64615;SDS011;51027;42.162;24.754;2022-11-11T09:39:49;26.73;;;12.68;;
64615;SDS011;51027;42.162;24.754;2022-11-11T09:44:59;28.27;;;13.88;;
64615;SDS011;51027;42.162;24.754;2022-11-11T09:51:08;27.35;;;12.35;;
64615;SDS011;51027;42.162;24.754;2022-11-11T09:54:10;27.85;;;12.02;;
64615;SDS011;51027;42.162;24.754;2022-11-11T09:56:38;26.85;;;13.25;;
64615;SDS011;51027;42.162;24.754;2022-11-11T09:59:13;26.58;;;11.65;;
64615;SDS011;51027;42.162;24.754;2022-11-11T10:01:44;28.30;;;12.82;;
64615;SDS011;51027;42.162;24.754;2022-11-11T10:04:26;27.42;;;11.82;;
64615;SDS011;51027;42.162;24.754;2022-11-11T10:07:17;25.50;;;11.07;;
64615;SDS011;51027;42.162;24.754;2022-11-11T10:12:51;25.25;;;11.30;;
64615;SDS011;51027;42.162;24.754;2022-11-11T10:15:20;23.95;;;10.73;;
64615;SDS011;51027;42.162;24.754;2022-11-11T10:17:54;26.58;;;11.77;;
64615;SDS011;51027;42.162;24.754;2022-11-11T10:20:34;27.80;;;11.57;;
64615;SDS011;51027;42.162;24.754;2022-11-11T10:23:16;26.33;;;11.88;;
64615;SDS011;51027;42.162;24.754;2022-11-11T10:25:52;23.08;;;9.20;;
64615;SDS011;51027;42.162;24.754;2022-11-11T10:28:20;23.95;;;10.73;;
64615;SDS011;51027;42.162;24.754;2022-11-11T10:30:47;25.58;;;12.07;;
64615;SDS011;51027;42.162;24.754;2022-11-11T10:33:37;25.65;;;12.23;;
64615;SDS011;51027;42.162;24.754;2022-11-11T10:36:21;28.13;;;12.88;;
64615;SDS011;51027;42.162;24.754;2022-11-11T10:38:50;24.15;;;11.38;;
64615;SDS011;51027;42.162;24.754;2022-11-11T10:47:07;28.85;;;11.50;;
64615;SDS011;51027;42.162;24.754;2022-11-11T10:52:23;26.20;;;10.63;;
64615;SDS011;51027;42.162;24.754;2022-11-11T10:55:04;26.85;;;11.27;;
64615;SDS011;51027;42.162;24.754;2022-11-11T10:57:36;23.70;;;12.55;;
64615;SDS011;51027;42.162;24.754;2022-11-11T11:00:09;25.00;;;10.52;;
64615;SDS011;51027;42.162;24.754;2022-11-11T11:08:08;23.38;;;10.23;;
64615;SDS011;51027;42.162;24.754;2022-11-11T11:10:39;22.35;;;10.57;;
64615;SDS011;51027;42.162;24.754;2022-11-11T11:13:26;21.23;;;9.93;;
64615;SDS011;51027;42.162;24.754;2022-11-11T11:16:02;22.65;;;9.98;;
64615;SDS011;51027;42.162;24.754;2022-11-11T11:18:30;22.58;;;9.38;;
64615;SDS011;51027;42.162;24.754;2022-11-11T11:20:59;22.10;;;9.55;;
64615;SDS011;51027;42.162;24.754;2022-11-11T11:23:37;22.60;;;9.50;;
64615;SDS011;51027;42.162;24.754;2022-11-11T11:26:08;21.67;;;9.27;;
64615;SDS011;51027;42.162;24.754;2022-11-11T11:28:35;21.67;;;9.32;;
64615;SDS011;51027;42.162;24.754;2022-11-11T11:31:17;22.73;;;9.85;;
64615;SDS011;51027;42.162;24.754;2022-11-11T11:34:00;24.15;;;9.75;;
64615;SDS011;51027;42.162;24.754;2022-11-11T11:36:26;19.75;;;8.77;;
64615;SDS011;51027;42.162;24.754;2022-11-11T11:38:51;22.60;;;10.27;;
64615;SDS011;51027;42.162;24.754;2022-11-11T11:41:17;22.77;;;9.88;;
64615;SDS011;51027;42.162;24.754;2022-11-11T11:44:00;21.75;;;9.93;;
64615;SDS011;51027;42.162;24.754;2022-11-11T11:46:26;21.83;;;9.85;;
64615;SDS011;51027;42.162;24.754;2022-11-11T11:51:56;21.42;;;9.20;;
64615;SDS011;51027;42.162;24.754;2022-11-11T12:03:15;24.80;;;10.63;;
64615;SDS011;51027;42.162;24.754;2022-11-11T12:06:10;22.95;;;9.55;;
64615;SDS011;51027;42.162;24.754;2022-11-11T12:11:38;23.58;;;10.18;;
64615;SDS011;51027;42.162;24.754;2022-11-11T12:14:22;22.97;;;9.90;;
64615;SDS011;51027;42.162;24.754;2022-11-11T12:28:01;22.48;;;9.65;;
64615;SDS011;51027;42.162;24.754;2022-11-11T12:31:05;25.02;;;10.85;;
64615;SDS011;51027;42.162;24.754;2022-11-11T12:36:28;23.90;;;10.32;;
64615;SDS011;51027;42.162;24.754;2022-11-11T12:44:23;25.48;;;12.05;;
64615;SDS011;51027;42.162;24.754;2022-11-11T12:47:15;24.60;;;10.43;;
64615;SDS011;51027;42.162;24.754;2022-11-11T13:16:31;28.33;;;13.70;;
64615;SDS011;51027;42.162;24.754;2022-11-11T13:18:59;27.90;;;13.68;;
64615;SDS011;51027;42.162;24.754;2022-11-11T13:21:44;30.73;;;13.80;;
64615;SDS011;51027;42.162;24.754;2022-11-11T13:24:17;30.85;;;15.48;;
64615;SDS011;51027;42.162;24.754;2022-11-11T13:27:01;27.75;;;13.43;;
64615;SDS011;51027;42.162;24.754;2022-11-11T13:31:59;28.20;;;13.70;;
64615;SDS011;51027;42.162;24.754;2022-11-11T13:34:30;28.05;;;14.32;;
64615;SDS011;51027;42.162;24.754;2022-11-11T13:37:01;28.27;;;14.45;;
64615;SDS011;51027;42.162;24.754;2022-11-11T13:39:30;29.67;;;13.95;;
64615;SDS011;51027;42.162;24.754;2022-11-11T13:42:19;29.73;;;14.23;;
64615;SDS011;51027;42.162;24.754;2022-11-11T13:44:53;30.42;;;14.55;;
64615;SDS011;51027;42.162;24.754;2022-11-11T13:47:30;30.55;;;14.13;;
64615;SDS011;51027;42.162;24.754;2022-11-11T13:50:05;26.17;;;13.52;;
64615;SDS011;51027;42.162;24.754;2022-11-11T13:52:56;34.22;;;17.08;;
64615;SDS011;51027;42.162;24.754;2022-11-11T13:55:40;33.22;;;16.63;;
64615;SDS011;51027;42.162;24.754;2022-11-11T13:58:25;33.10;;;17.88;;
64615;SDS011;51027;42.162;24.754;2022-11-11T14:00:56;33.00;;;16.50;;
64615;SDS011;51027;42.162;24.754;2022-11-11T14:06:27;31.42;;;17.00;;
64615;SDS011;51027;42.162;24.754;2022-11-11T14:13:49;36.83;;;18.48;;
64615;SDS011;51027;42.162;24.754;2022-11-11T14:21:49;32.20;;;17.30;;
64615;SDS011;51027;42.162;24.754;2022-11-11T14:24:43;32.40;;;17.00;;
64615;SDS011;51027;42.162;24.754;2022-11-11T14:29:37;32.40;;;16.05;;
64615;SDS011;51027;42.162;24.754;2022-11-11T14:35:19;33.70;;;14.20;;
64615;SDS011;51027;42.162;24.754;2022-11-11T14:37:50;30.38;;;12.68;;
64615;SDS011;51027;42.162;24.754;2022-11-11T14:40:23;28.23;;;13.43;;
64615;SDS011;51027;42.162;24.754;2022-11-11T14:42:54;27.20;;;12.02;;
64615;SDS011;51027;42.162;24.754;2022-11-11T14:46:06;24.65;;;11.07;;
64615;SDS011;51027;42.162;24.754;2022-11-11T14:54:17;23.40;;;9.80;;
64615;SDS011;51027;42.162;24.754;2022-11-11T14:56:52;21.80;;;9.55;;
64615;SDS011;51027;42.162;24.754;2022-11-11T14:59:22;23.58;;;9.75;;
64615;SDS011;51027;42.162;24.754;2022-11-11T15:01:52;27.13;;;10.93;;
64615;SDS011;51027;42.162;24.754;2022-11-11T15:04:19;24.83;;;9.70;;
64615;SDS011;51027;42.162;24.754;2022-11-11T15:06:45;21.23;;;9.48;;
64615;SDS011;51027;42.162;24.754;2022-11-11T15:12:04;24.83;;;10.30;;
64615;SDS011;51027;42.162;24.754;2022-11-11T15:17:15;22.02;;;9.13;;
64615;SDS011;51027;42.162;24.754;2022-11-11T15:36:53;27.05;;;10.77;;
64615;SDS011;51027;42.162;24.754;2022-11-11T15:39:25;25.85;;;10.18;;
64615;SDS011;51027;42.162;24.754;2022-11-11T15:42:00;23.30;;;9.63;;
64615;SDS011;51027;42.162;24.754;2022-11-11T15:44:27;22.98;;;10.40;;
64615;SDS011;51027;42.162;24.754;2022-11-11T15:47:04;19.98;;;7.90;;
64615;SDS011;51027;42.162;24.754;2022-11-11T15:49:37;21.95;;;9.02;;
64615;SDS011;51027;42.162;24.754;2022-11-11T15:54:50;21.48;;;9.07;;
64615;SDS011;51027;42.162;24.754;2022-11-11T15:57:29;23.25;;;8.75;;
64615;SDS011;51027;42.162;24.754;2022-11-11T15:59:57;20.45;;;8.90;;
64615;SDS011;51027;42.162;24.754;2022-11-11T16:02:25;23.10;;;8.98;;
64615;SDS011;51027;42.162;24.754;2022-11-11T16:05:00;23.70;;;8.10;;
64615;SDS011;51027;42.162;24.754;2022-11-11T16:07:35;23.23;;;9.65;;
64615;SDS011;51027;42.162;24.754;2022-11-11T16:10:06;20.15;;;8.85;;
64615;SDS011;51027;42.162;24.754;2022-11-11T16:12:41;22.47;;;9.23;;
64615;SDS011;51027;42.162;24.754;2022-11-11T16:15:18;21.65;;;9.55;;
64615;SDS011;51027;42.162;24.754;2022-11-11T16:17:57;22.88;;;8.57;;
64615;SDS011;51027;42.162;24.754;2022-11-11T16:20:30;20.27;;;8.15;;
64615;SDS011;51027;42.162;24.754;2022-11-11T16:23:03;21.20;;;7.93;;
64615;SDS011;51027;42.162;24.754;2022-11-11T16:25:32;21.15;;;8.68;;
64615;SDS011;51027;42.162;24.754;2022-11-11T16:27:58;24.40;;;9.65;;
64615;SDS011;51027;42.162;24.754;2022-11-11T16:32:58;20.95;;;8.40;;
64615;SDS011;51027;42.162;24.754;2022-11-11T16:38:03;20.02;;;8.27;;
64615;SDS011;51027;42.162;24.754;2022-11-11T16:46:08;26.83;;;10.00;;
64615;SDS011;51027;42.162;24.754;2022-11-11T16:51:19;23.65;;;9.40;;
64615;SDS011;51027;42.162;24.754;2022-11-11T16:54:11;24.52;;;9.93;;
64615;SDS011;51027;42.162;24.754;2022-11-11T16:56:41;25.75;;;10.40;;
64615;SDS011;51027;42.162;24.754;2022-11-11T16:59:12;23.48;;;12.18;;
64615;SDS011;51027;42.162;24.754;2022-11-11T17:01:45;24.75;;;11.57;;
64615;SDS011;51027;42.162;24.754;2022-11-11T17:04:11;26.10;;;11.25;;
64615;SDS011;51027;42.162;24.754;2022-11-11T17:09:40;23.15;;;10.20;;
64615;SDS011;51027;42.162;24.754;2022-11-11T17:12:06;20.17;;;8.60;;
64615;SDS011;51027;42.162;24.754;2022-11-11T17:14:36;22.85;;;8.80;;
64615;SDS011;51027;42.162;24.754;2022-11-11T17:17:04;20.23;;;9.00;;
64615;SDS011;51027;42.162;24.754;2022-11-11T17:19:31;26.05;;;11.35;;
64615;SDS011;51027;42.162;24.754;2022-11-11T17:22:04;22.05;;;9.02;;
64615;SDS011;51027;42.162;24.754;2022-11-11T17:24:34;27.80;;;11.43;;